Madeira Airport Funchal PT
ICAO: LPMA
IATA: FNC
Category: Medium
Scheduled Services: Yes

Elevation: 192 ft
TransAlt. 5000 ft.

Airport Communications:
APP:119.2
TWR:118.35

LPMA Zoom In..

If you have problems with the map follow the link
https://www.worldairports.se/pages/airport.php?
ICAO=LPMA

Runways:

(A) RW 05 length 8140 ft width 148 ft
---- / hdg 51

(B) RW 23 length 8140 ft width 148 ft
---- / hdg 231

Location; LPMA
Day. 21 / Time. 08.00 Zulu
* QNH: 1014
* Temperature: 18° c. 64.4°f.
* Wind from: 290° Speed 02 kn.
Dewpoint: 14° c.
Visibility: 10 km or more.
Clouds: Few 1500 ft.
Clouds: Scattered 7000 ft.

LPMA 210800Z 29002KT 9999 FEW015CB SCT070 18/14 Q1014


Wind From 290°
Speed 02 kn.

 
 
jpsmedia.com for Web Design worldairports.se 2018   terms of use